Time;durP1;ratioP1;P1;durP2;ratioP2;P2;SDS_P1;SDS_P2;PMS_P1;PMS_P2;Temp;Humidity;BMP_temperature;BMP_pressure;BME280_temperature;BME280_humidity;BME280_pressure;Samples;Min_cycle;Max_cycle;Signal;HPM_P1;HPM_P2
2022/10/01 00:00:50;;;;;;;9.95;8.50;;;11.60;99.90;;;;;;4878260;29;20665;-83
2022/10/01 00:03:17;;;;;;;12.43;9.30;;;11.50;99.90;;;;;;4878941;29;20048;-84
2022/10/01 00:05:43;;;;;;;12.82;9.13;;;11.50;99.90;;;;;;4862951;29;20128;-84
2022/10/01 00:08:09;;;;;;;10.25;8.90;;;11.50;99.90;;;;;;4880741;29;20147;-84
2022/10/01 00:10:37;;;;;;;10.63;9.52;;;11.60;99.90;;;;;;4878643;29;20075;-85
2022/10/01 00:13:02;;;;;;;12.02;9.48;;;11.50;99.90;;;;;;4863380;29;20524;-84
2022/10/01 00:15:28;;;;;;;11.02;9.77;;;11.50;99.90;;;;;;4864616;29;20112;-84
2022/10/01 00:17:54;;;;;;;10.80;8.98;;;11.50;99.90;;;;;;4880481;29;20516;-84
2022/10/01 00:20:20;;;;;;;11.52;9.68;;;11.50;99.90;;;;;;4881755;29;20167;-84
2022/10/01 00:22:46;;;;;;;13.73;9.95;;;11.40;99.90;;;;;;4850539;29;20072;-84
2022/10/01 00:25:12;;;;;;;14.52;10.20;;;11.60;99.90;;;;;;4883749;29;20468;-84
2022/10/01 00:27:38;;;;;;;11.30;10.15;;;11.50;99.90;;;;;;4866044;29;20056;-85
2022/10/01 00:30:05;;;;;;;12.20;10.65;;;11.40;99.90;;;;;;4877509;29;20052;-84
2022/10/01 00:32:34;;;;;;;14.55;10.20;;;11.40;99.90;;;;;;4861890;29;20033;-84
2022/10/01 00:35:01;;;;;;;13.43;11.07;;;11.40;99.90;;;;;;4868125;29;20096;-84
2022/10/01 00:37:27;;;;;;;12.43;10.65;;;11.50;99.90;;;;;;4855749;29;20045;-84
2022/10/01 00:39:53;;;;;;;14.18;10.77;;;11.40;99.90;;;;;;4845690;29;20053;-84
2022/10/01 00:42:22;;;;;;;12.68;10.63;;;11.40;99.90;;;;;;4864386;29;20608;-84
2022/10/01 00:44:48;;;;;;;12.98;11.23;;;11.40;99.90;;;;;;4878091;29;20577;-84
2022/10/01 00:47:22;;;;;;;13.15;10.55;;;11.40;99.90;;;;;;4863502;29;20116;-84
2022/10/01 00:49:50;;;;;;;11.93;10.73;;;11.50;99.90;;;;;;4891938;29;20041;-84
2022/10/01 00:52:21;;;;;;;13.32;11.27;;;11.50;99.90;;;;;;4848540;29;20778;-84
2022/10/01 00:54:52;;;;;;;12.13;10.77;;;11.50;99.90;;;;;;4864850;29;20077;-85
2022/10/01 00:57:20;;;;;;;12.35;11.02;;;11.40;99.90;;;;;;4834356;29;20033;-84
2022/10/01 00:59:48;;;;;;;13.90;11.73;;;11.60;99.90;;;;;;4863512;29;20053;-84
2022/10/01 01:02:14;;;;;;;13.77;11.10;;;11.50;99.90;;;;;;4893071;29;20052;-85
2022/10/01 01:04:40;;;;;;;12.43;11.13;;;11.40;99.90;;;;;;4851667;29;20048;-84
2022/10/01 01:07:07;;;;;;;15.95;11.60;;;11.50;99.90;;;;;;4869165;29;20099;-84
2022/10/01 01:09:37;;;;;;;12.45;11.15;;;11.50;99.90;;;;;;4849495;29;20053;-84
2022/10/01 01:12:41;;;;;;;14.00;11.38;;;11.40;99.90;;;;;;4880484;29;20464;-84
2022/10/01 01:15:25;;;;;;;13.52;11.43;;;11.50;99.90;;;;;;4826913;29;20081;-84
2022/10/01 01:18:05;;;;;;;12.82;10.57;;;11.40;99.90;;;;;;4884443;29;20135;-84
2022/10/01 01:21:12;;;;;;;15.40;11.38;;;11.40;99.90;;;;;;4887152;29;20123;-84
2022/10/01 01:24:02;;;;;;;16.00;11.27;;;11.50;99.90;;;;;;4841885;29;20093;-85
2022/10/01 01:27:05;;;;;;;12.20;10.80;;;11.40;99.90;;;;;;4884748;29;20053;-84
2022/10/01 01:29:42;;;;;;;12.13;10.85;;;11.50;99.90;;;;;;4840108;29;20406;-84
2022/10/01 01:32:13;;;;;;;14.40;11.10;;;11.50;99.90;;;;;;4855092;29;20458;-83
2022/10/01 01:34:42;;;;;;;16.13;11.85;;;11.40;99.90;;;;;;4852739;29;20040;-85
2022/10/01 01:37:13;;;;;;;12.38;11.07;;;11.40;99.90;;;;;;4868688;29;20052;-85
2022/10/01 01:39:44;;;;;;;11.45;10.25;;;11.40;99.90;;;;;;4854066;29;20067;-84
2022/10/01 01:42:20;;;;;;;14.02;10.85;;;11.50;99.90;;;;;;4884706;29;20095;-85
2022/10/01 01:44:48;;;;;;;12.23;10.45;;;11.50;99.90;;;;;;4882434;29;20564;-85
2022/10/01 01:47:14;;;;;;;12.20;10.75;;;11.50;99.90;;;;;;4866993;29;20036;-85
2022/10/01 01:49:41;;;;;;;13.63;10.32;;;11.50;99.90;;;;;;4856554;29;20408;-84
2022/10/01 01:52:14;;;;;;;13.05;11.07;;;11.60;99.90;;;;;;4879172;29;20595;-84
2022/10/01 01:54:46;;;;;;;12.75;11.02;;;11.50;99.90;;;;;;4860387;29;20504;-85
2022/10/01 01:57:13;;;;;;;14.43;10.75;;;11.50;99.90;;;;;;4865325;29;20036;-85
2022/10/01 01:59:40;;;;;;;12.38;10.43;;;11.40;99.90;;;;;;4881253;29;21679;-84
2022/10/01 02:02:06;;;;;;;12.43;10.50;;;11.50;99.90;;;;;;4885442;29;20120;-85
2022/10/01 02:04:44;;;;;;;12.90;11.13;;;11.50;99.90;;;;;;4866062;29;20116;-84
2022/10/01 02:07:16;;;;;;;13.23;10.15;;;11.40;99.90;;;;;;4882815;29;20131;-85
2022/10/01 02:09:45;;;;;;;10.75;9.38;;;11.50;99.90;;;;;;4852679;29;20417;-85
2022/10/01 02:12:36;;;;;;;10.82;9.35;;;11.60;99.90;;;;;;4881142;29;20474;-85
2022/10/01 02:15:12;;;;;;;13.18;9.75;;;11.40;99.90;;;;;;4863284;29;20037;-85
2022/10/01 02:17:57;;;;;;;10.52;9.15;;;11.60;99.90;;;;;;4853436;29;20057;-86
2022/10/01 02:20:33;;;;;;;11.90;8.43;;;11.60;99.90;;;;;;4880393;29;20575;-85
2022/10/01 02:23:08;;;;;;;10.63;9.38;;;11.50;99.90;;;;;;4867120;29;20041;-85
2022/10/01 02:25:39;;;;;;;10.50;9.10;;;11.60;99.90;;;;;;4852799;29;20153;-85
2022/10/01 02:28:12;;;;;;;10.05;8.55;;;11.50;99.90;;;;;;4883910;29;20044;-84
2022/10/01 02:30:43;;;;;;;10.45;8.32;;;11.50;99.90;;;;;;4871397;29;20108;-84
2022/10/01 02:33:12;;;;;;;9.15;8.20;;;11.60;99.90;;;;;;4866503;29;20037;-85
2022/10/01 02:35:42;;;;;;;13.00;8.43;;;11.50;99.90;;;;;;4867986;29;20282;-85
2022/10/01 02:38:09;;;;;;;10.32;8.10;;;11.60;99.90;;;;;;4879289;29;20637;-84
2022/10/01 02:40:39;;;;;;;9.82;8.25;;;11.60;99.90;;;;;;4878426;29;22181;-84
2022/10/01 02:43:32;;;;;;;10.10;7.93;;;11.60;99.90;;;;;;4893856;29;20037;-84
2022/10/01 02:46:21;;;;;;;9.85;8.00;;;11.60;99.90;;;;;;4849250;29;21069;-84
2022/10/01 02:48:48;;;;;;;8.35;7.25;;;11.50;99.90;;;;;;4883359;29;20496;-84
2022/10/01 02:51:16;;;;;;;9.07;7.30;;;11.70;99.90;;;;;;4880387;29;20056;-84
2022/10/01 02:53:51;;;;;;;8.10;7.30;;;11.50;99.90;;;;;;4875119;29;20406;-84
2022/10/01 02:57:21;;;;;;;10.13;7.78;;;11.60;99.90;;;;;;4863719;29;20040;-84
2022/10/01 02:59:06;;;;;;;9.52;8.02;;;11.60;99.90;;;;;;4848228;29;20059;-85
2022/10/01 03:01:35;;;;;;;8.13;7.32;;;11.70;99.90;;;;;;4861811;29;20210;-84
2022/10/01 03:04:01;;;;;;;10.10;7.75;;;11.70;99.90;;;;;;4882684;29;20047;-85
2022/10/01 03:06:26;;;;;;;7.78;6.95;;;11.70;99.90;;;;;;4892794;29;20049;-84
2022/10/01 03:08:52;;;;;;;7.35;6.60;;;11.70;99.90;;;;;;4866728;29;20484;-84
2022/10/01 03:11:19;;;;;;;7.35;6.65;;;11.70;99.90;;;;;;4893649;29;20112;-84
2022/10/01 03:13:48;;;;;;;8.27;7.25;;;11.70;99.90;;;;;;4852683;29;20044;-85
2022/10/01 03:16:14;;;;;;;8.38;7.20;;;11.80;99.90;;;;;;4864721;29;20041;-84
2022/10/01 03:18:39;;;;;;;7.30;6.57;;;11.70;99.90;;;;;;4879961;29;20040;-83
2022/10/01 03:21:05;;;;;;;8.85;6.60;;;11.70;99.90;;;;;;4879103;29;20044;-84
2022/10/01 03:23:31;;;;;;;7.47;6.55;;;11.70;99.90;;;;;;4865883;29;20072;-84
2022/10/01 03:25:56;;;;;;;7.07;6.10;;;11.80;99.90;;;;;;4862121;29;20517;-84
2022/10/01 03:28:22;;;;;;;7.63;6.45;;;11.90;99.90;;;;;;4863951;29;20053;-84
2022/10/01 03:30:47;;;;;;;6.78;6.18;;;11.80;99.90;;;;;;4881263;29;20081;-84
2022/10/01 03:33:13;;;;;;;6.97;6.28;;;11.80;99.90;;;;;;4881235;29;20044;-84
2022/10/01 03:35:39;;;;;;;6.28;5.68;;;11.80;99.90;;;;;;4879108;29;20043;-83
2022/10/01 03:38:05;;;;;;;8.55;5.35;;;11.90;99.90;;;;;;4879576;29;20041;-85
2022/10/01 03:40:32;;;;;;;6.22;5.40;;;11.80;99.90;;;;;;4894232;29;20484;-84
2022/10/01 03:42:58;;;;;;;6.80;5.72;;;11.90;99.90;;;;;;4852845;29;20049;-83
2022/10/01 03:45:24;;;;;;;6.50;5.80;;;11.90;99.90;;;;;;4880952;29;20072;-84
2022/10/01 03:47:52;;;;;;;5.93;4.97;;;11.80;99.90;;;;;;4892184;29;20056;-83
2022/10/01 03:50:20;;;;;;;5.70;5.03;;;11.80;99.90;;;;;;4853349;29;20049;-84
2022/10/01 03:52:49;;;;;;;7.50;4.45;;;11.90;99.90;;;;;;4865172;29;20052;-84
2022/10/01 03:55:15;;;;;;;6.07;4.95;;;11.90;99.90;;;;;;4867224;29;20491;-83
2022/10/01 03:57:40;;;;;;;6.30;4.60;;;11.90;99.90;;;;;;4868463;29;20041;-83
2022/10/01 04:00:08;;;;;;;4.45;4.05;;;11.90;99.90;;;;;;4893325;29;20091;-84
2022/10/01 04:02:33;;;;;;;4.18;3.78;;;11.90;99.90;;;;;;4866180;29;20043;-84
2022/10/01 04:04:59;;;;;;;4.60;4.00;;;11.90;99.90;;;;;;4879373;29;20049;-83
2022/10/01 04:07:25;;;;;;;4.57;3.97;;;12.00;99.90;;;;;;4878941;29;20497;-83
2022/10/01 04:09:50;;;;;;;4.43;3.83;;;12.00;99.90;;;;;;4853426;29;20474;-84
2022/10/01 04:12:17;;;;;;;5.47;3.50;;;11.90;99.90;;;;;;4894770;29;20044;-83
2022/10/01 04:14:43;;;;;;;4.57;3.47;;;11.90;99.90;;;;;;4886142;29;20484;-83
2022/10/01 04:17:08;;;;;;;3.88;3.47;;;12.00;99.90;;;;;;4868446;29;20041;-84
2022/10/01 04:19:34;;;;;;;3.80;3.40;;;12.10;99.90;;;;;;4864429;29;20580;-84
2022/10/01 04:22:00;;;;;;;10.38;3.50;;;11.90;99.90;;;;;;4884071;29;20045;-84
2022/10/01 04:24:25;;;;;;;4.32;3.10;;;12.00;99.90;;;;;;4878401;29;20071;-84
2022/10/01 04:26:51;;;;;;;4.03;3.40;;;11.90;99.90;;;;;;4882994;29;20056;-83
2022/10/01 04:29:17;;;;;;;3.83;3.38;;;11.90;99.90;;;;;;4865319;29;20536;-84
2022/10/01 04:31:43;;;;;;;4.72;3.67;;;12.00;99.90;;;;;;4867161;29;20412;-84
2022/10/01 04:34:08;;;;;;;3.92;3.53;;;12.10;99.90;;;;;;4883087;29;20546;-84
2022/10/01 04:36:34;;;;;;;4.05;3.65;;;12.10;99.90;;;;;;4894840;29;20037;-84
2022/10/01 04:39:00;;;;;;;4.35;3.10;;;12.10;99.90;;;;;;4873757;29;20041;-83
2022/10/01 04:41:26;;;;;;;4.07;3.40;;;12.00;99.90;;;;;;4867882;29;20052;-84
2022/10/01 04:43:51;;;;;;;3.25;2.90;;;12.00;99.90;;;;;;4887492;29;20045;-83
2022/10/01 04:46:17;;;;;;;3.47;3.17;;;12.10;99.90;;;;;;4869723;29;20052;-84
2022/10/01 04:48:43;;;;;;;3.88;3.40;;;12.20;99.90;;;;;;4889550;29;20906;-83
2022/10/01 04:51:09;;;;;;;3.42;3.13;;;12.20;99.90;;;;;;4870917;29;20075;-83
2022/10/01 04:53:34;;;;;;;3.70;3.35;;;12.20;99.90;;;;;;4897521;29;20483;-84
2022/10/01 04:56:01;;;;;;;3.85;3.45;;;12.20;99.90;;;;;;4864108;29;20044;-84
2022/10/01 04:58:26;;;;;;;4.80;3.83;;;12.10;99.90;;;;;;4866539;29;20032;-83
2022/10/01 05:00:52;;;;;;;3.95;3.53;;;12.10;99.90;;;;;;4885637;29;20043;-83
2022/10/01 05:03:18;;;;;;;4.68;3.85;;;12.30;99.90;;;;;;4883313;29;20446;-83
2022/10/01 05:05:43;;;;;;;4.70;4.20;;;12.30;99.90;;;;;;4869451;29;20120;-83
2022/10/01 05:08:09;;;;;;;4.88;3.92;;;12.10;99.90;;;;;;4881026;29;20136;-84
2022/10/01 05:10:35;;;;;;;6.10;3.55;;;12.20;99.90;;;;;;4885035;29;20056;-84
2022/10/01 05:13:01;;;;;;;4.53;3.65;;;12.20;99.90;;;;;;4879302;29;20045;-84
2022/10/01 05:15:28;;;;;;;5.75;4.38;;;12.20;99.90;;;;;;4869874;29;20507;-84
2022/10/01 05:17:54;;;;;;;4.72;4.32;;;12.20;99.90;;;;;;4880519;29;20044;-83
2022/10/01 05:20:22;;;;;;;4.70;4.22;;;12.20;99.90;;;;;;4869466;29;20405;-83
2022/10/01 05:22:48;;;;;;;6.53;4.30;;;12.20;99.90;;;;;;4880818;29;20048;-83
2022/10/01 05:25:15;;;;;;;5.07;4.53;;;12.30;99.90;;;;;;4881901;29;20062;-83
2022/10/01 05:27:41;;;;;;;5.00;4.50;;;12.30;99.90;;;;;;4881914;29;20052;-83
2022/10/01 05:30:09;;;;;;;5.18;4.68;;;12.30;99.90;;;;;;4883322;29;20497;-83
2022/10/01 05:32:35;;;;;;;6.25;4.88;;;12.20;99.90;;;;;;4880729;29;20399;-83
2022/10/01 05:35:02;;;;;;;5.85;4.60;;;12.30;99.90;;;;;;4880111;29;20060;-83
2022/10/01 05:37:27;;;;;;;5.18;4.68;;;12.50;99.90;;;;;;4851988;29;20389;-83
2022/10/01 05:39:53;;;;;;;6.10;5.50;;;12.50;99.90;;;;;;4869817;29;20303;-83
2022/10/01 05:42:19;;;;;;;5.60;5.00;;;12.50;99.90;;;;;;4880810;29;20373;-84
2022/10/01 05:44:44;;;;;;;6.45;5.25;;;12.40;99.90;;;;;;4867257;29;20037;-83
2022/10/01 05:47:12;;;;;;;7.45;5.13;;;12.40;99.90;;;;;;4881547;29;20056;-83
2022/10/01 05:49:43;;;;;;;6.55;5.15;;;12.40;99.90;;;;;;4868167;29;20107;-83
2022/10/01 05:52:13;;;;;;;6.55;5.57;;;12.40;99.90;;;;;;4894888;29;20324;-84
2022/10/01 05:54:40;;;;;;;6.72;5.72;;;12.60;99.90;;;;;;4868488;29;20048;-83
2022/10/01 05:57:06;;;;;;;9.02;5.75;;;12.50;99.90;;;;;;4883521;29;20044;-83
2022/10/01 05:59:33;;;;;;;7.40;5.70;;;12.40;99.90;;;;;;4896153;29;20064;-83
2022/10/01 06:01:58;;;;;;;8.40;6.05;;;12.50;99.90;;;;;;4882930;29;20083;-84
2022/10/01 06:04:24;;;;;;;6.00;5.40;;;12.70;99.90;;;;;;4869450;29;20132;-83
2022/10/01 06:06:49;;;;;;;7.18;5.90;;;12.50;99.90;;;;;;4883652;29;20448;-84
2022/10/01 06:09:15;;;;;;;7.15;6.45;;;12.70;99.90;;;;;;4870885;29;20057;-84
2022/10/01 06:11:41;;;;;;;7.82;6.35;;;12.80;99.90;;;;;;4852013;29;20563;-83
2022/10/01 06:14:07;;;;;;;7.78;6.13;;;12.80;99.90;;;;;;4852441;29;20044;-84
2022/10/01 06:16:33;;;;;;;6.00;5.30;;;12.70;99.90;;;;;;4868595;29;20163;-84
2022/10/01 06:18:59;;;;;;;7.18;5.85;;;12.80;99.90;;;;;;4883839;29;20397;-84
2022/10/01 06:21:25;;;;;;;9.60;6.53;;;12.80;99.90;;;;;;4866342;29;20045;-84
2022/10/01 06:23:52;;;;;;;7.10;5.85;;;12.90;99.90;;;;;;4868448;29;20143;-84
2022/10/01 06:26:18;;;;;;;8.35;6.32;;;12.90;99.90;;;;;;4880457;29;20049;-84
2022/10/01 06:28:44;;;;;;;9.10;6.85;;;13.00;99.90;;;;;;4866534;29;20080;-83
2022/10/01 06:31:10;;;;;;;7.43;6.30;;;13.00;99.90;;;;;;4868537;29;20169;-83
2022/10/01 06:33:39;;;;;;;10.00;6.53;;;13.10;99.90;;;;;;4880664;29;20124;-84
2022/10/01 06:36:05;;;;;;;12.35;6.32;;;13.20;99.90;;;;;;4852275;29;20053;-83
2022/10/01 06:38:30;;;;;;;7.90;6.28;;;13.10;99.90;;;;;;4883026;29;20063;-83
2022/10/01 06:41:05;;;;;;;8.32;6.93;;;13.20;99.90;;;;;;4883934;29;20096;-83
2022/10/01 06:43:32;;;;;;;;;;;13.30;99.90;;;;;;4865192;29;20083;-83
2022/10/01 06:46:02;;;;;;;9.73;6.82;;;13.60;99.90;;;;;;4887902;29;20010;-84
2022/10/01 06:48:30;;;;;;;10.18;7.10;;;13.70;99.90;;;;;;4894288;29;20053;-83
2022/10/01 06:50:57;;;;;;;9.07;6.85;;;13.70;99.90;;;;;;4895652;29;20155;-84
2022/10/01 06:53:24;;;;;;;10.98;7.15;;;13.80;99.90;;;;;;4851707;29;20145;-84
2022/10/01 06:55:50;;;;;;;10.25;7.15;;;13.80;99.90;;;;;;4877321;29;20052;-84
2022/10/01 06:58:20;;;;;;;9.38;7.30;;;13.90;99.90;;;;;;4877551;29;20033;-84
2022/10/01 07:00:47;;;;;;;6.82;6.13;;;13.80;99.90;;;;;;4844182;29;20052;-83
2022/10/01 07:03:17;;;;;;;7.47;6.68;;;13.90;99.90;;;;;;4868101;29;20278;-84
2022/10/01 07:05:42;;;;;;;10.77;7.28;;;13.80;99.90;;;;;;4878943;29;20490;-84
2022/10/01 07:08:08;;;;;;;7.50;6.07;;;13.80;99.90;;;;;;4874987;29;20084;-83
2022/10/01 07:10:37;;;;;;;8.57;6.15;;;13.80;99.90;;;;;;4875842;29;20167;-83
2022/10/01 07:13:10;;;;;;;7.57;6.38;;;14.10;99.90;;;;;;4866853;29;20518;-83
2022/10/01 07:15:36;;;;;;;10.98;5.93;;;14.00;99.90;;;;;;4878907;29;20041;-84
2022/10/01 07:18:03;;;;;;;8.52;6.25;;;14.10;99.90;;;;;;4865531;29;20045;-83
2022/10/01 07:20:32;;;;;;;8.80;6.40;;;14.20;99.90;;;;;;4878919;29;20078;-83
2022/10/01 07:22:58;;;;;;;11.35;6.40;;;14.00;99.90;;;;;;4879861;29;20051;-83
2022/10/01 07:25:25;;;;;;;10.50;6.13;;;14.00;99.90;;;;;;4864285;29;20041;-83
2022/10/01 07:27:55;;;;;;;9.35;5.88;;;14.20;99.90;;;;;;4866212;29;20486;-83
2022/10/01 07:30:22;;;;;;;7.13;5.32;;;14.20;99.90;;;;;;4834697;29;20049;-83
2022/10/01 07:32:48;;;;;;;7.80;5.15;;;14.00;99.90;;;;;;4865204;29;20041;-83
2022/10/01 07:35:15;;;;;;;7.93;5.10;;;14.00;99.90;;;;;;4864452;29;20044;-83
2022/10/01 07:37:40;;;;;;;6.30;4.78;;;13.80;99.90;;;;;;4859606;29;20045;-84
2022/10/01 07:40:07;;;;;;;8.23;4.60;;;13.80;99.90;;;;;;4865229;29;20045;-83
2022/10/01 07:42:34;;;;;;;5.50;3.58;;;13.90;99.90;;;;;;4863408;29;20045;-83
2022/10/01 07:45:03;;;;;;;7.00;3.80;;;13.80;99.90;;;;;;4877003;29;20052;-83
2022/10/01 07:47:28;;;;;;;6.97;4.30;;;13.90;99.90;;;;;;4834714;29;20053;-83
2022/10/01 07:49:54;;;;;;;9.80;4.20;;;13.90;99.90;;;;;;4876345;29;20438;-83
2022/10/01 07:52:20;;;;;;;11.43;4.40;;;14.10;99.90;;;;;;4874093;29;20058;-83
2022/10/01 07:54:47;;;;;;;9.45;4.10;;;14.10;99.90;;;;;;4860214;29;20094;-83
2022/10/01 07:57:13;;;;;;;7.10;3.95;;;14.10;99.90;;;;;;4876021;29;20138;-83
2022/10/01 07:59:39;;;;;;;6.35;3.90;;;14.20;99.90;;;;;;4878539;29;20506;-83
2022/10/01 08:02:12;;;;;;;7.30;3.85;;;14.40;99.90;;;;;;4865760;29;20045;-83
2022/10/01 08:07:22;;;;;;;6.75;3.83;;;14.20;99.90;;;;;;4863005;29;20572;-83
2022/10/01 08:09:48;;;;;;;8.70;3.83;;;14.30;99.90;;;;;;4862678;29;20041;-83
2022/10/01 08:12:13;;;;;;;7.15;3.60;;;14.60;99.90;;;;;;4863960;29;20117;-83
2022/10/01 08:14:39;;;;;;;6.28;3.40;;;14.70;99.90;;;;;;4882530;29;20414;-83
2022/10/01 08:17:05;;;;;;;6.97;3.30;;;14.90;99.90;;;;;;4868065;29;20426;-82
2022/10/01 08:19:31;;;;;;;6.47;3.35;;;15.00;99.90;;;;;;4879863;29;20541;-83
2022/10/01 08:21:56;;;;;;;6.45;2.80;;;14.80;99.90;;;;;;4878605;29;20041;-83
2022/10/01 08:24:22;;;;;;;6.40;2.70;;;14.80;99.90;;;;;;4868019;29;20501;-83
2022/10/01 08:26:54;;;;;;;5.10;2.53;;;15.00;99.90;;;;;;4878748;29;20115;-83
2022/10/01 08:29:21;;;;;;;8.20;3.00;;;14.80;99.90;;;;;;4878443;29;20554;-83
2022/10/01 08:31:46;;;;;;;7.32;2.63;;;14.70;99.90;;;;;;4852965;29;20025;-83
2022/10/01 08:34:13;;;;;;;10.65;2.97;;;15.10;99.90;;;;;;4877722;29;20450;-82
2022/10/01 08:36:38;;;;;;;9.15;2.90;;;15.20;99.90;;;;;;4881600;29;20086;-83
2022/10/01 08:39:12;;;;;;;9.52;3.13;;;15.00;99.90;;;;;;4870332;29;20042;-84
2022/10/01 08:41:53;;;;;;;9.55;3.20;;;15.10;99.90;;;;;;4854960;29;20050;-83
2022/10/01 08:44:27;;;;;;;12.48;3.25;;;15.40;99.90;;;;;;4869355;29;20128;-83
2022/10/01 08:46:59;;;;;;;6.25;3.00;;;15.50;99.90;;;;;;4864580;29;20060;-83
2022/10/01 08:49:37;;;;;;;10.88;2.90;;;15.50;99.90;;;;;;4876905;29;20564;-83
2022/10/01 08:52:36;;;;;;;9.00;2.70;;;16.10;99.90;;;;;;4877369;29;20326;-83
2022/10/01 08:55:08;;;;;;;12.23;3.28;;;16.30;99.90;;;;;;4854074;29;20057;-82
2022/10/01 08:57:42;;;;;;;10.73;3.10;;;16.40;99.90;;;;;;4865352;29;20051;-83
2022/10/01 09:00:14;;;;;;;12.23;3.15;;;16.50;99.90;;;;;;4868462;29;20080;-83
2022/10/01 09:02:42;;;;;;;10.88;3.08;;;16.40;99.90;;;;;;4875965;29;20077;-83
2022/10/01 09:05:11;;;;;;;8.40;2.95;;;16.40;99.90;;;;;;4866286;29;20073;-83
2022/10/01 09:08:08;;;;;;;11.82;2.97;;;16.70;99.90;;;;;;4852302;29;20375;-83
2022/10/01 09:10:44;;;;;;;11.80;3.03;;;16.90;99.90;;;;;;4854560;29;20049;-83
2022/10/01 09:13:40;;;;;;;10.18;2.67;;;16.70;99.90;;;;;;4863240;29;20589;-84
2022/10/01 09:16:20;;;;;;;15.10;3.17;;;17.00;99.90;;;;;;4880698;29;20525;-84
2022/10/01 09:19:25;;;;;;;8.77;2.47;;;16.70;99.90;;;;;;4852458;29;20052;-84
2022/10/01 09:22:00;;;;;;;9.70;2.70;;;16.60;99.90;;;;;;4843148;29;20144;-83
2022/10/01 09:24:41;;;;;;;12.18;2.70;;;16.40;99.90;;;;;;4879162;29;20120;-83
2022/10/01 09:27:17;;;;;;;16.65;3.25;;;16.30;99.90;;;;;;4867903;29;20056;-83
2022/10/01 09:29:49;;;;;;;12.57;2.45;;;16.30;99.90;;;;;;4864234;29;20053;-84
2022/10/01 09:32:21;;;;;;;10.73;3.10;;;16.10;99.90;;;;;;4878096;29;20234;-83
2022/10/01 09:34:47;;;;;;;9.18;1.80;;;15.90;99.90;;;;;;4876816;29;20192;-83
2022/10/01 09:37:26;;;;;;;5.65;1.60;;;15.90;99.90;;;;;;4864490;29;20049;-83
2022/10/01 09:40:13;;;;;;;7.10;1.60;;;15.60;99.90;;;;;;4866950;29;20053;-84
2022/10/01 09:42:40;;;;;;;7.78;1.73;;;15.60;99.90;;;;;;4877694;29;20408;-84
2022/10/01 09:45:09;;;;;;;5.32;1.40;;;15.50;99.90;;;;;;4866489;29;20564;-85
2022/10/01 09:47:35;;;;;;;10.63;2.05;;;15.50;99.90;;;;;;4838153;29;20715;-85
2022/10/01 09:50:05;;;;;;;6.40;1.98;;;15.80;99.90;;;;;;4836245;29;20042;-85
2022/10/01 09:52:37;;;;;;;8.50;1.80;;;15.90;99.90;;;;;;4833290;29;20070;-84
2022/10/01 09:55:32;;;;;;;9.10;2.38;;;16.10;99.90;;;;;;4879818;29;20053;-85
2022/10/01 09:58:02;;;;;;;9.02;2.22;;;16.50;99.90;;;;;;4866412;29;20136;-85
2022/10/01 10:00:27;;;;;;;6.80;1.90;;;16.70;99.90;;;;;;4865306;29;20399;-84
2022/10/01 10:02:55;;;;;;;10.55;2.33;;;17.40;99.90;;;;;;4850694;29;20109;-84
2022/10/01 10:05:23;;;;;;;12.52;2.00;;;17.30;99.90;;;;;;4879509;29;20303;-84
2022/10/01 10:07:56;;;;;;;10.88;2.72;;;17.50;99.90;;;;;;4878568;29;20049;-84
2022/10/01 10:10:31;;;;;;;8.90;2.55;;;17.50;99.90;;;;;;4868143;29;20151;-84
2022/10/01 10:13:08;;;;;;;10.93;2.22;;;17.60;99.90;;;;;;4862999;29;20049;-84
2022/10/01 10:15:34;;;;;;;8.73;2.00;;;17.40;99.90;;;;;;4876921;29;20050;-84
2022/10/01 10:18:16;;;;;;;9.65;1.85;;;16.80;99.90;;;;;;4866029;29;20690;-84
2022/10/01 10:20:44;;;;;;;7.38;1.95;;;16.50;99.90;;;;;;4878162;29;20042;-84
2022/10/01 10:23:18;;;;;;;7.88;2.20;;;16.00;99.90;;;;;;4864159;29;20053;-84
2022/10/01 10:26:01;;;;;;;4.77;1.73;;;15.60;99.90;;;;;;4852079;29;20057;-85
2022/10/01 10:28:29;;;;;;;2.75;0.80;;;15.10;99.90;;;;;;4875804;29;20128;-85
2022/10/01 10:30:56;;;;;;;2.78;0.65;;;13.90;99.90;;;;;;4847438;29;20045;-84
2022/10/01 10:33:25;;;;;;;1.83;0.60;;;13.70;99.90;;;;;;4860504;29;20556;-85
2022/10/01 10:36:04;;;;;;;3.72;0.90;;;13.60;99.90;;;;;;4865327;29;20392;-84
2022/10/01 10:38:33;;;;;;;2.78;1.20;;;13.70;99.90;;;;;;4882273;29;20565;-85
2022/10/01 10:41:00;;;;;;;4.70;1.35;;;13.80;99.90;;;;;;4856109;29;20582;-84
2022/10/01 10:43:34;;;;;;;4.75;1.63;;;14.00;99.90;;;;;;4866479;29;20413;-85
2022/10/01 10:46:00;;;;;;;4.63;1.33;;;14.30;99.90;;;;;;4856413;29;20048;-84
2022/10/01 10:48:38;;;;;;;7.90;1.08;;;14.10;99.90;;;;;;4864495;29;20501;-84
2022/10/01 10:51:04;;;;;;;6.47;1.73;;;14.20;99.90;;;;;;4875784;29;20105;-85
2022/10/01 10:53:43;;;;;;;4.07;1.63;;;14.40;99.90;;;;;;4866596;29;20057;-85
2022/10/01 10:56:21;;;;;;;5.28;1.88;;;14.60;99.90;;;;;;4848570;29;20049;-84
2022/10/01 10:58:48;;;;;;;7.80;1.40;;;14.60;99.90;;;;;;4875120;29;20037;-86
2022/10/01 11:01:18;;;;;;;6.22;1.70;;;14.90;99.90;;;;;;4875891;29;20052;-84
2022/10/01 11:03:52;;;;;;;7.90;1.80;;;15.00;99.90;;;;;;4874231;29;20061;-85
2022/10/01 11:06:18;;;;;;;5.35;1.30;;;15.10;99.90;;;;;;4864501;29;20085;-84
2022/10/01 11:08:56;;;;;;;5.00;1.50;;;15.20;99.90;;;;;;4860924;29;20407;-84
2022/10/01 11:12:06;;;;;;;5.50;2.05;;;14.90;99.90;;;;;;4877696;29;20077;-84
2022/10/01 11:14:40;;;;;;;6.65;1.58;;;15.10;99.90;;;;;;4862745;29;20037;-85
2022/10/01 11:17:43;;;;;;;7.43;1.65;;;15.00;99.90;;;;;;4875175;29;20135;-84
2022/10/01 11:20:25;;;;;;;4.80;1.38;;;15.20;99.90;;;;;;4875996;29;20533;-85
2022/10/01 11:23:36;;;;;;;8.38;1.73;;;15.30;99.90;;;;;;4860453;29;20045;-84
2022/10/01 11:26:32;;;;;;;6.70;1.80;;;15.50;99.90;;;;;;4864643;29;20101;-84
2022/10/01 11:29:22;;;;;;;8.15;1.65;;;15.60;99.90;;;;;;4863776;29;20112;-85
2022/10/01 11:32:18;;;;;;;3.95;1.73;;;16.00;99.90;;;;;;4832738;29;20051;-86
2022/10/01 11:34:47;;;;;;;6.00;1.65;;;15.70;99.90;;;;;;4876258;29;20318;-86
2022/10/01 11:37:57;;;;;;;6.72;1.65;;;15.80;99.90;;;;;;4867207;29;20061;-87
2022/10/01 11:40:31;;;;;;;8.07;1.60;;;15.70;99.90;;;;;;4863875;29;20049;-90
2022/10/01 11:43:03;;;;;;;5.50;1.90;;;16.30;99.90;;;;;;4848320;29;20042;-90
2022/10/01 11:45:38;;;;;;;6.05;1.67;;;15.90;99.90;;;;;;4849361;29;20050;-89
2022/10/01 11:48:07;;;;;;;7.72;2.05;;;16.40;99.90;;;;;;4849525;29;20433;-88
2022/10/01 11:50:39;;;;;;;7.85;1.80;;;16.30;99.90;;;;;;4885312;29;20064;-89
2022/10/01 11:53:10;;;;;;;7.40;2.08;;;16.30;99.90;;;;;;4862587;29;20091;-87
2022/10/01 11:58:52;;;;;;;;;;;17.00;99.90;;;;;;4882493;29;20057;-87
2022/10/01 12:01:31;;;;;;;7.00;1.90;;;17.10;99.90;;;;;;4849672;29;19987;-88
2022/10/01 12:04:06;;;;;;;9.30;2.40;;;17.00;99.90;;;;;;4876395;29;20132;-89
2022/10/01 12:06:43;;;;;;;6.75;2.15;;;17.00;99.90;;;;;;4857140;29;20687;-89
2022/10/01 12:09:47;;;;;;;9.20;1.95;;;16.80;99.90;;;;;;4839937;29;20057;-87
2022/10/01 12:12:30;;;;;;;10.70;2.22;;;16.50;99.90;;;;;;4860870;29;20057;-88
2022/10/01 12:15:08;;;;;;;10.02;2.05;;;16.60;99.90;;;;;;4848750;29;20481;-86
2022/10/01 12:17:45;;;;;;;14.00;2.38;;;16.40;99.90;;;;;;4874252;29;20037;-87
2022/10/01 12:20:38;;;;;;;10.35;2.17;;;16.60;99.90;;;;;;4862218;29;20044;-86
2022/10/01 12:23:07;;;;;;;10.95;1.92;;;16.30;99.90;;;;;;4876934;29;20045;-87
2022/10/01 12:25:47;;;;;;;8.68;2.30;;;16.20;99.90;;;;;;4864622;29;20038;-86
2022/10/01 12:28:20;;;;;;;7.47;2.08;;;16.60;99.90;;;;;;4874514;29;20461;-85
2022/10/01 12:30:57;;;;;;;10.70;1.85;;;16.40;99.90;;;;;;4875055;29;20051;-87
2022/10/01 12:33:35;;;;;;;11.13;2.38;;;17.10;99.90;;;;;;4877727;29;20054;-87
2022/10/01 12:36:21;;;;;;;7.10;1.88;;;17.20;99.90;;;;;;4859525;29;20040;-86
2022/10/01 12:38:50;;;;;;;9.73;2.20;;;17.40;99.90;;;;;;4844275;29;20063;-87
2022/10/01 12:41:21;;;;;;;11.15;2.17;;;17.60;99.90;;;;;;4873810;29;20049;-86
2022/10/01 12:44:05;;;;;;;8.15;2.25;;;17.40;99.90;;;;;;4877152;29;20053;-86
2022/10/01 12:46:40;;;;;;;6.30;1.75;;;17.40;99.90;;;;;;4843838;29;20797;-87
2022/10/01 12:49:49;;;;;;;11.57;1.90;;;17.40;99.90;;;;;;4871918;29;20071;-86
2022/10/01 12:52:42;;;;;;;9.55;2.13;;;17.50;99.90;;;;;;4863807;29;20449;-86
2022/10/01 12:55:28;;;;;;;6.47;1.70;;;17.10;76.40;;;;;;4873931;29;20131;-86
2022/10/01 12:58:14;;;;;;;9.57;1.77;;;17.40;99.90;;;;;;4845622;29;20065;-88
2022/10/01 13:01:14;;;;;;;5.40;1.60;;;17.30;99.90;;;;;;4884204;29;20037;-86
2022/10/01 13:03:49;;;;;;;7.53;1.88;;;17.50;99.90;;;;;;4852524;29;20180;-87
2022/10/01 13:06:21;;;;;;;4.95;1.50;;;17.10;99.90;;;;;;4882680;29;20045;-86
2022/10/01 13:08:56;;;;;;;4.82;1.65;;;16.80;58.00;;;;;;4885394;29;20040;-86
2022/10/01 13:11:44;;;;;;;9.60;2.10;;;16.60;1.00;;;;;;4867271;29;20064;-86